Time;durP1;ratioP1;P1;durP2;ratioP2;P2;SDS_P1;SDS_P2;PMS_P1;PMS_P2;Temp;Humidity;BMP_temperature;BMP_pressure;BME280_temperature;BME280_humidity;BME280_pressure;Samples;Min_cycle;Max_cycle;Signal;HPM_P1;HPM_P2
2022/03/01 00:01:10;;;;;;;10.60;4.18;;;;;;;-1.37;65.05;101277.00;5096976;28;20338;-73
2022/03/01 00:03:40;;;;;;;9.40;4.10;;;;;;;-1.30;64.82;101274.94;5097298;28;20107;-73
2022/03/01 00:06:10;;;;;;;13.55;4.63;;;;;;;-1.30;65.21;101269.94;5097176;28;20028;-73
2022/03/01 00:08:39;;;;;;;12.25;4.53;;;;;;;-1.39;64.92;101263.50;5096987;28;20044;-72
2022/03/01 00:11:08;;;;;;;11.65;4.25;;;;;;;-1.98;64.72;101179.88;5112803;28;20508;-73
2022/03/01 00:13:37;;;;;;;7.65;3.50;;;;;;;-1.51;64.91;101277.63;5097737;28;20063;-73
2022/03/01 00:16:07;;;;;;;8.27;3.87;;;;;;;-1.47;65.12;101274.63;5099686;28;20040;-73
2022/03/01 00:18:36;;;;;;;9.57;3.92;;;;;;;-1.35;64.75;101277.13;5098892;28;20047;-73
2022/03/01 00:21:10;;;;;;;9.30;4.13;;;;;;;-1.36;64.66;101268.75;5100207;28;20044;-74
2022/03/01 00:23:40;;;;;;;10.98;4.63;;;;;;;-1.25;64.64;101271.16;5099468;28;20048;-73
2022/03/01 00:26:08;;;;;;;11.98;4.30;;;;;;;-1.37;64.51;101261.97;5098708;28;20036;-73
2022/03/01 00:28:37;;;;;;;11.98;4.50;;;;;;;-1.38;64.96;101264.38;5097579;28;20044;-73
2022/03/01 00:31:07;;;;;;;10.25;4.57;;;;;;;-1.49;64.84;101256.09;5097845;28;20036;-73
2022/03/01 00:33:38;;;;;;;10.52;4.30;;;;;;;-1.57;65.17;101252.19;5098041;28;20040;-73
2022/03/01 00:36:07;;;;;;;10.52;4.97;;;;;;;-1.62;65.27;101252.59;5098165;28;20604;-73
2022/03/01 00:38:40;;;;;;;15.70;5.97;;;;;;;-1.42;65.29;101263.28;5097271;28;20478;-73
2022/03/01 00:41:09;;;;;;;15.90;7.20;;;;;;;-1.44;64.96;101254.78;5098015;28;20066;-73
2022/03/01 00:43:41;;;;;;;20.55;6.75;;;;;;;-1.44;65.31;101258.94;5097087;28;20113;-73
2022/03/01 00:46:10;;;;;;;16.27;6.80;;;;;;;-1.71;65.20;101240.31;5096876;28;20048;-73
2022/03/01 00:48:39;;;;;;;11.60;4.82;;;;;;;-1.57;65.40;101261.31;5097747;28;20136;-73
2022/03/01 00:51:08;;;;;;;11.80;4.70;;;;;;;-1.44;65.21;101249.78;5096866;28;20032;-74
2022/03/01 00:53:37;;;;;;;9.10;4.97;;;;;;;-1.61;65.03;101255.19;5098947;28;20040;-73
2022/03/01 00:56:07;;;;;;;;;;;;;;;-1.66;65.04;101254.03;5096979;28;20276;-73
2022/03/01 00:58:36;;;;;;;9.02;4.45;;;;;;;-1.56;65.21;101258.91;5097817;28;20333;-72
2022/03/01 01:01:08;;;;;;;13.68;4.55;;;;;;;-1.27;64.71;101250.13;5097322;28;20036;-73
2022/03/01 01:03:37;;;;;;;11.98;4.28;;;;;;;-1.23;64.31;101259.59;5097763;28;20044;-73
2022/03/01 01:06:09;;;;;;;11.70;4.70;;;;;;;-1.17;64.29;101260.00;5096629;28;20094;-73
2022/03/01 01:08:38;;;;;;;9.10;4.75;;;;;;;-1.32;64.20;101256.44;5097944;28;20035;-73
2022/03/01 01:11:09;;;;;;;13.83;5.63;;;;;;;-1.47;64.23;101253.72;5096239;28;20067;-73
2022/03/01 01:13:38;;;;;;;12.57;5.68;;;;;;;-1.74;64.80;101241.69;5096237;28;20036;-73
2022/03/01 01:16:07;;;;;;;15.00;5.73;;;;;;;-1.63;64.63;101261.72;5096446;28;20544;-73
2022/03/01 01:18:38;;;;;;;10.90;5.45;;;;;;;-1.49;65.09;101255.25;5096710;28;20047;-73
2022/03/01 01:21:07;;;;;;;13.32;6.30;;;;;;;-1.23;64.65;101259.59;5096386;28;20062;-73
2022/03/01 01:23:36;;;;;;;12.03;4.57;;;;;;;-1.17;64.15;101258.38;5096402;28;20048;-73
2022/03/01 01:26:06;;;;;;;14.90;5.32;;;;;;;-1.48;64.71;101251.97;5096845;28;20309;-72
2022/03/01 01:28:36;;;;;;;12.13;5.25;;;;;;;-1.48;64.46;101259.47;5096957;28;20036;-73
2022/03/01 01:31:05;;;;;;;14.40;5.82;;;;;;;-1.65;64.63;101258.25;5096031;28;20040;-73
2022/03/01 01:33:34;;;;;;;12.45;5.80;;;;;;;-1.78;64.74;101262.25;5096255;28;20413;-72
2022/03/01 01:36:04;;;;;;;10.48;5.32;;;;;;;-1.95;65.34;101270.16;5096222;28;20051;-72
2022/03/01 01:38:33;;;;;;;12.00;5.50;;;;;;;-1.93;65.69;101268.63;5096478;28;20048;-72
2022/03/01 01:41:01;;;;;;;9.70;5.40;;;;;;;-1.76;65.86;101253.22;5095860;28;20059;-73
2022/03/01 01:43:30;;;;;;;11.43;5.47;;;;;;;-1.74;65.99;101262.59;5096394;28;20051;-73
2022/03/01 01:46:01;;;;;;;11.63;5.28;;;;;;;-1.91;65.99;101267.13;5096099;28;20123;-73
2022/03/01 01:48:30;;;;;;;12.77;5.18;;;;;;;-1.68;65.64;101263.03;5096222;28;20052;-73
2022/03/01 01:50:59;;;;;;;14.27;5.78;;;;;;;-1.49;65.55;101256.09;5096456;28;20044;-73
2022/03/01 01:53:28;;;;;;;12.40;5.78;;;;;;;-1.47;65.03;101251.22;5096176;28;20044;-73
2022/03/01 01:55:57;;;;;;;11.63;5.88;;;;;;;-1.60;64.99;101251.94;5096137;28;20032;-72
2022/03/01 01:58:25;;;;;;;13.73;4.93;;;;;;;-1.62;64.98;101247.59;5095834;28;20075;-73
2022/03/01 02:00:54;;;;;;;11.97;5.40;;;;;;;-1.74;65.55;101255.09;5096099;28;20047;-72
2022/03/01 02:03:27;;;;;;;16.23;5.60;;;;;;;-1.72;65.64;101251.06;5096094;28;20051;-72
2022/03/01 02:05:56;;;;;;;11.30;4.25;;;;;;;-1.93;65.99;101258.63;5096093;28;20055;-73
2022/03/01 02:08:30;;;;;;;10.10;5.22;;;;;;;-2.09;66.39;101251.63;5095306;28;20071;-73
2022/03/01 02:10:59;;;;;;;12.60;5.03;;;;;;;-2.18;66.24;101259.31;5095197;28;20036;-73
2022/03/01 02:13:28;;;;;;;7.50;3.80;;;;;;;-2.29;66.32;101239.25;5095245;28;20032;-72
2022/03/01 02:15:58;;;;;;;13.50;5.00;;;;;;;-2.09;66.71;101261.63;5095884;28;20040;-73
2022/03/01 02:18:31;;;;;;;11.57;4.80;;;;;;;-1.97;66.49;101257.53;5095259;28;20044;-73
2022/03/01 02:21:01;;;;;;;13.95;5.45;;;;;;;-2.15;66.76;101262.03;5095664;28;20051;-73
2022/03/01 02:23:30;;;;;;;12.50;5.70;;;;;;;-2.28;67.05;101256.88;5095778;28;20048;-73
2022/03/01 02:25:59;;;;;;;10.52;4.80;;;;;;;-2.13;66.93;101257.16;5095154;28;20032;-73
2022/03/01 02:28:28;;;;;;;11.80;5.27;;;;;;;-2.17;67.44;101253.56;5095368;28;20079;-72
2022/03/01 02:30:58;;;;;;;;;;;;;;;-2.10;67.44;101259.88;5095774;28;20147;-73
2022/03/01 02:33:28;;;;;;;11.43;4.88;;;;;;;-2.09;67.27;101256.63;5095098;28;20362;-73
2022/03/01 02:35:56;;;;;;;14.53;5.30;;;;;;;-2.56;67.38;101199.69;5095007;28;20043;-73
2022/03/01 02:38:27;;;;;;;14.75;5.57;;;;;;;-2.21;67.56;101255.72;5094818;28;20075;-72
2022/03/01 02:40:56;;;;;;;14.75;6.57;;;;;;;-2.22;67.30;101251.47;5095033;28;20398;-73
2022/03/01 02:43:25;;;;;;;10.77;5.33;;;;;;;-2.16;67.04;101231.94;5094464;28;20040;-72
2022/03/01 02:45:54;;;;;;;17.10;5.40;;;;;;;-2.00;67.03;101262.31;5110968;28;20511;-72
2022/03/01 02:48:22;;;;;;;16.00;6.17;;;;;;;-2.11;67.09;101258.13;5094407;28;20349;-73
2022/03/01 02:50:51;;;;;;;12.87;6.00;;;;;;;-2.28;67.11;101258.53;5095537;28;20040;-73
2022/03/01 02:53:20;;;;;;;13.27;6.03;;;;;;;-2.38;67.64;101256.09;5094070;28;20040;-72
2022/03/01 02:55:51;;;;;;;17.75;6.05;;;;;;;-2.44;67.29;101255.59;5094071;28;20119;-73
2022/03/01 02:58:20;;;;;;;17.13;6.10;;;;;;;-2.64;67.69;101215.75;5094413;28;20040;-73
2022/03/01 03:00:49;;;;;;;12.55;5.75;;;;;;;-2.50;67.58;101215.16;5094271;28;20401;-72
2022/03/01 03:03:18;;;;;;;11.57;5.30;;;;;;;-2.34;67.52;101253.03;5093164;28;20485;-72
2022/03/01 03:05:48;;;;;;;10.80;4.30;;;;;;;-2.50;67.73;101230.16;5093967;28;20094;-73
2022/03/01 03:08:16;;;;;;;11.73;5.20;;;;;;;-2.35;67.42;101256.31;5093798;28;20128;-73
2022/03/01 03:10:45;;;;;;;12.70;4.95;;;;;;;-2.33;67.88;101247.31;5094096;28;20439;-72
2022/03/01 03:13:16;;;;;;;14.95;5.10;;;;;;;-2.51;67.82;101253.41;5094073;28;20039;-73
2022/03/01 03:15:45;;;;;;;12.30;4.90;;;;;;;-2.63;67.88;101227.47;5093748;28;20106;-73
2022/03/01 03:18:14;;;;;;;8.65;4.55;;;;;;;-2.50;67.77;101245.16;5094246;28;20041;-73
2022/03/01 03:20:43;;;;;;;12.77;5.15;;;;;;;-2.47;68.21;101250.41;5093762;28;20040;-73
2022/03/01 03:23:12;;;;;;;14.98;5.18;;;;;;;-2.36;68.02;101244.56;5109844;28;20046;-73
2022/03/01 03:25:41;;;;;;;12.98;6.05;;;;;;;-2.46;67.54;101248.00;5093880;28;20367;-72
2022/03/01 03:28:10;;;;;;;10.38;4.28;;;;;;;-2.52;67.97;101245.03;5092676;28;20482;-73
2022/03/01 03:30:41;;;;;;;12.77;5.55;;;;;;;-2.71;67.43;101247.75;5093512;28;20055;-72
2022/03/01 03:33:10;;;;;;;11.45;5.32;;;;;;;-3.11;68.36;101202.13;5093533;28;20067;-73
2022/03/01 03:35:39;;;;;;;12.90;5.67;;;;;;;-2.85;68.44;101248.31;5093846;28;20032;-73
2022/03/01 03:38:08;;;;;;;12.27;5.33;;;;;;;-2.94;68.41;101230.16;5093768;28;20271;-72
2022/03/01 03:40:37;;;;;;;12.48;5.07;;;;;;;-3.05;68.11;101240.94;5093709;28;20338;-73
2022/03/01 03:43:06;;;;;;;12.50;5.57;;;;;;;-3.08;69.12;101240.69;5092438;28;20040;-72
2022/03/01 03:45:35;;;;;;;16.00;5.13;;;;;;;-2.87;69.03;101242.34;5093336;28;20047;-73
2022/03/01 03:48:06;;;;;;;13.32;5.40;;;;;;;-2.82;68.44;101241.06;5091860;28;20048;-73
2022/03/01 03:50:35;;;;;;;13.70;5.25;;;;;;;-2.83;68.72;101239.31;5093452;28;20123;-73
2022/03/01 03:53:05;;;;;;;8.80;4.43;;;;;;;-2.92;68.13;101243.63;5093728;28;20036;-73
2022/03/01 03:55:34;;;;;;;13.30;5.30;;;;;;;-3.08;68.44;101235.69;5093193;28;20043;-72
2022/03/01 03:58:04;;;;;;;15.05;4.90;;;;;;;-3.18;68.99;101222.38;5093208;28;20059;-73
2022/03/01 04:00:33;;;;;;;12.25;5.07;;;;;;;-3.06;69.22;101239.19;5093248;28;20509;-72
2022/03/01 04:03:02;;;;;;;15.40;5.63;;;;;;;-2.96;69.08;101241.66;5093053;28;20047;-73
2022/03/01 04:05:34;;;;;;;14.77;5.35;;;;;;;-3.03;68.96;101241.03;5092211;28;20090;-73
2022/03/01 04:08:04;;;;;;;15.98;6.63;;;;;;;-3.20;69.13;101233.88;5094546;28;20058;-72
2022/03/01 04:10:33;;;;;;;14.07;6.00;;;;;;;-3.11;69.02;101244.56;5096716;28;20044;-72
2022/03/01 04:13:02;;;;;;;18.48;7.72;;;;;;;-3.10;69.74;101242.19;5096732;28;20036;-73
2022/03/01 04:15:31;;;;;;;12.60;4.60;;;;;;;-3.08;69.72;101235.69;5095710;28;20057;-72
2022/03/01 04:18:02;;;;;;;22.48;8.50;;;;;;;-3.15;69.48;101243.47;5095511;28;20040;-73
2022/03/01 04:20:31;;;;;;;15.50;7.03;;;;;;;-3.16;69.64;101236.72;5096807;28;20512;-73
2022/03/01 04:23:02;;;;;;;22.30;6.65;;;;;;;-3.16;69.44;101224.22;5096511;28;20064;-73
2022/03/01 04:25:31;;;;;;;17.48;8.13;;;;;;;-3.23;69.69;101219.50;5096474;28;20486;-72
2022/03/01 04:28:00;;;;;;;14.52;5.95;;;;;;;-3.20;70.01;101213.91;5096409;28;20041;-73
2022/03/01 04:30:29;;;;;;;11.75;5.05;;;;;;;-3.06;69.91;101224.19;5096552;28;20375;-73
2022/03/01 04:32:59;;;;;;;15.40;5.45;;;;;;;-3.14;69.69;101222.72;5096260;28;20040;-73
2022/03/01 04:35:28;;;;;;;19.50;7.63;;;;;;;-3.13;69.51;101217.00;5096267;28;20040;-73
2022/03/01 04:37:57;;;;;;;20.08;8.25;;;;;;;-3.27;70.17;101212.56;5096558;28;20072;-72
2022/03/01 04:40:28;;;;;;;20.10;7.47;;;;;;;-3.15;69.53;101208.50;5096205;28;20048;-72
2022/03/01 04:42:57;;;;;;;12.10;5.93;;;;;;;-2.95;69.64;101218.41;5096465;28;20070;-73
2022/03/01 04:45:25;;;;;;;19.58;6.22;;;;;;;-2.88;69.14;101218.09;5097219;28;20101;-73
2022/03/01 04:47:54;;;;;;;11.68;5.43;;;;;;;-2.99;69.63;101218.94;5096250;28;20048;-72
2022/03/01 04:50:24;;;;;;;11.57;4.85;;;;;;;-3.19;69.44;101209.00;5096359;28;20114;-73
2022/03/01 04:52:53;;;;;;;11.68;5.07;;;;;;;-3.00;69.08;101214.66;5095833;28;20054;-72
2022/03/01 04:55:22;;;;;;;10.25;4.45;;;;;;;-3.02;69.21;101210.31;5096359;28;20036;-73
2022/03/01 04:57:52;;;;;;;10.07;4.78;;;;;;;-2.96;69.05;101210.81;5096207;28;20130;-73
2022/03/01 05:00:22;;;;;;;10.50;4.88;;;;;;;-3.09;68.88;101203.97;5095859;28;20050;-73
2022/03/01 05:02:50;;;;;;;12.98;4.95;;;;;;;-3.09;69.58;101210.59;5094429;28;20123;-73
2022/03/01 05:05:20;;;;;;;10.73;5.05;;;;;;;-3.19;69.21;101201.53;5095659;28;20123;-72
2022/03/01 05:07:50;;;;;;;17.40;5.93;;;;;;;-3.37;69.73;101207.59;5095914;28;20043;-73
2022/03/01 05:10:21;;;;;;;12.57;4.93;;;;;;;-3.40;69.54;101189.88;5111366;28;20075;-73
2022/03/01 05:12:53;;;;;;;13.80;5.75;;;;;;;-3.51;70.00;101200.66;5095817;28;20509;-73
2022/03/01 05:15:24;;;;;;;13.05;5.30;;;;;;;-3.43;70.23;101192.13;5095828;28;20066;-73
2022/03/01 05:17:53;;;;;;;13.38;5.43;;;;;;;-3.25;70.18;101195.19;5095454;28;20048;-72
2022/03/01 05:20:25;;;;;;;11.07;4.53;;;;;;;-3.17;69.79;101202.53;5095433;28;20040;-72
2022/03/01 05:22:54;;;;;;;11.38;5.57;;;;;;;-3.67;69.86;101198.53;5095309;28;20043;-73
2022/03/01 05:25:24;;;;;;;13.73;5.25;;;;;;;-3.74;70.26;101200.47;5095279;28;20048;-72
2022/03/01 05:27:55;;;;;;;12.57;5.38;;;;;;;-3.80;70.59;101205.81;5095241;28;20068;-73
2022/03/01 05:30:25;;;;;;;19.20;6.40;;;;;;;-3.74;70.29;101195.47;5095535;28;20489;-72
2022/03/01 05:32:54;;;;;;;;;;;;;;;-3.67;70.74;101207.69;5095697;28;20124;-73
2022/03/01 05:35:25;;;;;;;9.73;4.63;;;;;;;-3.68;70.41;101196.81;5095190;28;19955;-72
2022/03/01 05:37:55;;;;;;;11.45;6.18;;;;;;;-3.53;70.54;101197.16;5095092;28;20040;-73
2022/03/01 05:40:26;;;;;;;15.70;5.80;;;;;;;-3.43;70.68;101199.59;5095007;28;20048;-72
2022/03/01 05:42:57;;;;;;;10.85;5.90;;;;;;;-3.35;70.57;101202.72;5094920;28;20050;-73
2022/03/01 05:45:27;;;;;;;17.13;6.28;;;;;;;-3.34;70.73;101207.84;5095139;28;20496;-73
2022/03/01 05:47:56;;;;;;;11.65;5.45;;;;;;;-3.31;70.17;101208.06;5094621;28;20551;-73
2022/03/01 05:50:26;;;;;;;;;;;;;;;-3.31;70.58;101209.69;5095206;28;20043;-73
2022/03/01 05:52:55;;;;;;;;;;;;;;;-3.16;70.67;101206.75;5095310;28;20414;-73
2022/03/01 05:55:23;;;;;;;10.35;4.78;;;;;;;-2.91;69.93;101207.03;5095059;28;20006;-73
2022/03/01 05:57:52;;;;;;;13.10;4.93;;;;;;;-2.75;69.14;101214.94;5095192;28;20047;-73
2022/03/01 06:00:23;;;;;;;7.88;4.70;;;;;;;-2.66;69.04;101209.78;5094889;28;20066;-72
2022/03/01 06:02:52;;;;;;;11.75;5.05;;;;;;;-2.71;68.47;101209.41;5094588;28;20040;-73
2022/03/01 06:05:27;;;;;;;11.00;4.72;;;;;;;-2.74;69.27;101214.19;5093683;28;20040;-73
2022/03/01 06:07:57;;;;;;;7.18;3.97;;;;;;;-2.71;68.44;101217.78;5094389;28;20584;-73
2022/03/01 06:10:26;;;;;;;10.77;4.43;;;;;;;-2.58;68.80;101216.22;5094441;28;20070;-73
2022/03/01 06:12:56;;;;;;;13.45;4.85;;;;;;;-2.62;68.41;101216.75;5094576;28;20074;-72
2022/03/01 06:15:26;;;;;;;8.82;4.60;;;;;;;-2.58;68.37;101211.22;5094619;28;20550;-73
2022/03/01 06:17:55;;;;;;;10.30;4.70;;;;;;;-2.46;68.50;101209.63;5094594;28;20090;-73
2022/03/01 06:20:24;;;;;;;8.83;4.40;;;;;;;-2.19;67.87;101196.69;5110235;28;20058;-73
2022/03/01 06:22:53;;;;;;;10.35;4.85;;;;;;;-1.62;67.30;101203.44;5110053;28;20062;-72
2022/03/01 06:25:22;;;;;;;10.00;4.60;;;;;;;-1.26;66.32;101211.78;5094107;28;20044;-73
2022/03/01 06:27:53;;;;;;;10.50;4.97;;;;;;;-0.99;65.96;101216.22;5094407;28;20193;-73
2022/03/01 06:30:23;;;;;;;11.98;5.55;;;;;;;-0.78;65.42;101213.56;5093616;28;20051;-72
2022/03/01 06:32:54;;;;;;;12.68;5.30;;;;;;;-0.68;64.62;101215.06;5094596;28;20374;-73
2022/03/01 06:35:23;;;;;;;15.18;5.88;;;;;;;-0.60;64.67;101213.94;5094288;28;20059;-72
2022/03/01 06:37:53;;;;;;;13.68;6.13;;;;;;;-0.34;64.04;101208.19;5094396;28;20082;-73
2022/03/01 06:40:23;;;;;;;16.23;7.07;;;;;;;-0.30;63.34;101205.09;5096037;28;20370;-73
2022/03/01 06:42:52;;;;;;;15.20;6.13;;;;;;;-0.38;62.79;101211.25;5093280;28;20071;-72
2022/03/01 06:45:20;;;;;;;14.10;5.82;;;;;;;-0.47;62.84;101209.00;5094976;28;20085;-72
2022/03/01 06:47:50;;;;;;;14.85;6.40;;;;;;;-0.39;62.67;101190.34;5094241;28;20044;-72
2022/03/01 06:50:23;;;;;;;12.30;5.78;;;;;;;-0.27;62.45;101211.22;5094952;28;20509;-72
2022/03/01 06:52:52;;;;;;;13.75;6.03;;;;;;;-0.08;62.23;101199.13;5095349;28;20105;-72
2022/03/01 06:55:23;;;;;;;11.13;4.75;;;;;;;-0.02;61.94;101184.44;5094599;28;20366;-72
2022/03/01 06:57:53;;;;;;;10.98;5.05;;;;;;;0.07;61.88;101188.34;5095925;28;20085;-72
2022/03/01 07:00:24;;;;;;;12.82;5.93;;;;;;;0.17;61.49;101198.19;5093402;28;20070;-72
2022/03/01 07:02:53;;;;;;;15.47;5.30;;;;;;;0.26;61.25;101193.78;5096034;28;20135;-72
2022/03/01 07:05:24;;;;;;;17.23;6.45;;;;;;;0.46;61.29;101190.88;5110759;28;20342;-73
2022/03/01 07:07:53;;;;;;;13.23;5.40;;;;;;;0.64;60.34;101184.50;5093993;28;20105;-72
2022/03/01 07:10:22;;;;;;;12.47;4.90;;;;;;;0.79;60.59;101185.47;5093478;28;20040;-73
2022/03/01 07:12:51;;;;;;;14.40;5.47;;;;;;;1.00;60.13;101183.41;5093418;28;20497;-73
2022/03/01 07:15:20;;;;;;;16.05;6.25;;;;;;;1.24;59.37;101180.72;5093539;28;20048;-73
2022/03/01 07:17:49;;;;;;;9.70;5.20;;;;;;;1.45;59.16;101170.19;5093394;28;20134;-73
2022/03/01 07:20:19;;;;;;;16.77;5.97;;;;;;;1.61;58.86;101187.97;5093482;28;20097;-74
2022/03/01 07:22:49;;;;;;;10.80;4.50;;;;;;;1.64;58.33;101183.94;5093424;28;20040;-73
2022/03/01 07:25:18;;;;;;;13.00;5.60;;;;;;;1.77;57.57;101183.03;5094050;28;20547;-74
2022/03/01 07:27:49;;;;;;;14.17;5.30;;;;;;;1.63;56.87;101186.38;5093413;28;20039;-74
2022/03/01 07:30:19;;;;;;;14.18;4.93;;;;;;;1.65;56.68;101187.34;5093757;28;20047;-73
2022/03/01 07:32:49;;;;;;;13.45;6.32;;;;;;;1.60;57.03;101181.16;5093916;28;20113;-73
2022/03/01 07:35:18;;;;;;;14.02;5.72;;;;;;;1.52;56.65;101183.22;5093313;28;20060;-74
2022/03/01 07:37:47;;;;;;;11.17;5.57;;;;;;;1.68;57.47;101185.00;5093335;28;20047;-74
2022/03/01 07:40:21;;;;;;;11.55;5.43;;;;;;;1.64;57.06;101178.03;5093218;28;20272;-73
2022/03/01 07:42:51;;;;;;;11.70;5.55;;;;;;;1.84;56.91;101172.53;5096326;28;20046;-74
2022/03/01 07:45:20;;;;;;;17.25;5.82;;;;;;;2.05;56.48;101173.75;5097280;28;20055;-74
2022/03/01 07:47:51;;;;;;;14.23;5.57;;;;;;;2.34;57.29;101168.72;5096701;28;20113;-73
2022/03/01 07:50:20;;;;;;;;;;;;;;;2.59;56.00;101166.75;5098123;28;20466;-72
2022/03/01 07:52:51;;;;;;;12.00;4.43;;;;;;;2.76;55.71;101160.09;5101610;28;20377;-73
2022/03/01 07:55:22;;;;;;;13.23;5.93;;;;;;;3.07;55.27;101162.63;5095941;28;20048;-73
2022/03/01 07:57:53;;;;;;;12.93;5.43;;;;;;;3.27;54.79;101167.03;5096987;28;20490;-73
2022/03/01 08:00:23;;;;;;;12.77;5.43;;;;;;;3.52;54.39;101154.91;5096832;28;20052;-73
2022/03/01 08:02:53;;;;;;;11.18;5.18;;;;;;;3.53;54.32;101155.78;5095745;28;20044;-73
2022/03/01 08:05:23;;;;;;;13.00;5.20;;;;;;;3.65;53.92;101158.91;5114131;28;20046;-73
2022/03/01 08:07:57;;;;;;;8.65;4.30;;;;;;;3.64;53.17;101150.47;5109043;28;20049;-73
2022/03/01 08:10:28;;;;;;;7.38;3.83;;;;;;;3.95;52.32;101157.91;5099353;28;20102;-73
2022/03/01 08:12:58;;;;;;;8.57;3.95;;;;;;;3.82;51.10;101151.38;5098911;28;20505;-73
2022/03/01 08:15:27;;;;;;;5.38;3.00;;;;;;;3.66;51.27;101146.38;5104469;28;20060;-72
2022/03/01 08:17:58;;;;;;;10.77;4.35;;;;;;;3.78;51.60;101149.50;5096000;28;20127;-72
2022/03/01 08:20:28;;;;;;;8.63;4.22;;;;;;;3.91;50.85;101149.31;5114168;28;20040;-73
2022/03/01 08:22:58;;;;;;;8.90;4.05;;;;;;;3.73;50.86;101075.19;5117086;28;20048;-73
2022/03/01 08:25:28;;;;;;;9.88;4.25;;;;;;;4.16;50.14;101132.81;5114652;28;20425;-73
2022/03/01 08:27:59;;;;;;;8.02;3.90;;;;;;;4.14;48.95;101140.34;5107310;28;20082;-73
2022/03/01 08:30:28;;;;;;;8.32;4.25;;;;;;;4.20;49.10;101135.56;5096652;28;20498;-72
2022/03/01 08:32:59;;;;;;;8.20;3.72;;;;;;;4.30;48.15;101129.28;5096681;28;20494;-73
2022/03/01 08:35:28;;;;;;;;;;;;;;;4.32;48.13;101130.25;5097537;28;20094;-73
2022/03/01 08:38:02;;;;;;;8.32;3.72;;;;;;;4.33;47.55;101131.97;5101637;28;20011;-73
2022/03/01 08:40:34;;;;;;;9.60;3.92;;;;;;;4.21;47.62;101116.22;5106247;28;20051;-72
2022/03/01 08:43:03;;;;;;;7.10;3.03;;;;;;;4.56;47.42;101138.94;5105782;28;20037;-73
2022/03/01 08:45:32;;;;;;;9.37;3.83;;;;;;;4.71;46.85;101139.66;5111103;28;20036;-73
2022/03/01 08:48:02;;;;;;;5.72;3.30;;;;;;;4.93;47.08;101132.28;5105124;28;20604;-74
2022/03/01 08:50:31;;;;;;;10.55;4.13;;;;;;;5.15;46.60;101136.63;5105123;28;20089;-72
2022/03/01 08:53:19;;;;;;;9.18;4.63;;;;;;;5.09;46.04;101142.25;5105047;28;20381;-73
2022/03/01 08:55:50;;;;;;;9.48;3.80;;;;;;;5.20;45.94;101141.09;5104865;28;20131;-73
2022/03/01 08:58:19;;;;;;;6.53;3.40;;;;;;;5.04;45.69;101133.59;5113274;28;20043;-73
2022/03/01 09:00:48;;;;;;;8.48;4.72;;;;;;;4.89;45.67;101138.00;5116378;28;20059;-73
2022/03/01 09:03:17;;;;;;;8.85;4.40;;;;;;;5.17;45.85;101140.06;5116132;28;20096;-73
2022/03/01 09:06:07;;;;;;;7.10;3.63;;;;;;;5.29;45.62;101131.38;5116290;28;20138;-73
2022/03/01 09:08:40;;;;;;;6.30;3.40;;;;;;;5.36;44.77;101120.72;5116051;28;20050;-72
2022/03/01 09:11:12;;;;;;;7.65;3.63;;;;;;;5.49;44.59;101128.81;5110289;28;20071;-74
2022/03/01 09:13:41;;;;;;;8.00;3.65;;;;;;;5.49;44.49;101123.75;5103607;28;20105;-73
2022/03/01 09:16:10;;;;;;;7.97;3.47;;;;;;;5.62;43.82;101108.25;5095483;28;20055;-73
2022/03/01 09:18:40;;;;;;;7.85;4.03;;;;;;;5.63;44.40;101107.47;5098810;28;20044;-74
2022/03/01 09:21:09;;;;;;;6.60;3.63;;;;;;;5.71;43.70;101111.22;5102905;28;20557;-73
2022/03/01 09:23:41;;;;;;;9.60;3.97;;;;;;;6.11;43.59;101103.56;5094463;28;20044;-73
2022/03/01 09:26:12;;;;;;;6.40;3.72;;;;;;;6.16;42.77;101108.03;5103806;28;20046;-73
2022/03/01 09:28:41;;;;;;;8.65;3.33;;;;;;;6.53;42.33;101107.78;5115697;28;20040;-73
2022/03/01 09:31:10;;;;;;;8.20;3.50;;;;;;;6.58;41.79;101101.22;5115833;28;20059;-73
2022/03/01 09:33:42;;;;;;;7.80;3.33;;;;;;;6.53;41.84;101102.69;5115896;28;20134;-73
2022/03/01 09:36:13;;;;;;;7.50;3.85;;;;;;;6.68;42.46;101101.63;5101127;28;20492;-73
2022/03/01 09:38:43;;;;;;;9.77;3.60;;;;;;;6.83;41.54;101100.47;5095915;28;20044;-73
2022/03/01 09:41:14;;;;;;;8.02;3.17;;;;;;;6.61;40.78;101099.66;5095313;28;20105;-73
2022/03/01 09:43:44;;;;;;;6.28;3.30;;;;;;;7.06;39.87;101099.63;5094937;28;20044;-73
2022/03/01 09:46:16;;;;;;;5.88;3.30;;;;;;;6.98;39.20;101090.88;5094932;28;20040;-73
2022/03/01 09:48:45;;;;;;;5.55;2.50;;;;;;;7.06;40.05;101085.25;5094740;28;20044;-73
2022/03/01 09:51:15;;;;;;;7.10;3.08;;;;;;;7.23;39.09;101088.38;5105825;28;20114;-73
2022/03/01 09:53:46;;;;;;;7.72;2.88;;;;;;;7.23;38.47;101083.31;5098233;28;20052;-73
2022/03/01 09:56:18;;;;;;;6.70;2.60;;;;;;;7.36;38.23;101081.28;5115013;28;20093;-73
2022/03/01 09:58:49;;;;;;;5.53;2.72;;;;;;;7.56;37.55;101078.56;5107944;28;20486;-73
2022/03/01 10:01:19;;;;;;;8.27;3.50;;;;;;;7.29;36.93;101069.16;5094677;28;20040;-73
2022/03/01 10:03:51;;;;;;;8.07;3.15;;;;;;;7.55;37.25;101071.72;5105239;28;20067;-73
2022/03/01 10:06:23;;;;;;;7.60;2.90;;;;;;;7.81;37.43;101061.63;5104435;28;20078;-74
2022/03/01 10:08:54;;;;;;;5.38;2.55;;;;;;;8.13;36.95;101057.56;5094791;28;20048;-73
2022/03/01 10:11:25;;;;;;;7.18;2.92;;;;;;;8.37;35.68;101057.47;5094507;28;20086;-73
2022/03/01 10:13:59;;;;;;;4.88;2.60;;;;;;;8.25;34.76;101045.22;5105836;28;20059;-73
2022/03/01 10:16:38;;;;;;;8.13;2.60;;;;;;;8.18;35.39;101034.81;5113502;28;20442;-73
2022/03/01 10:19:11;;;;;;;4.07;2.10;;;;;;;8.47;35.51;101031.50;5106990;28;20047;-74
2022/03/01 10:21:41;;;;;;;6.18;2.38;;;;;;;8.56;34.07;101032.63;5106120;28;20040;-73
2022/03/01 10:24:10;;;;;;;4.00;1.90;;;;;;;8.78;33.19;101029.00;5100630;28;20040;-73
2022/03/01 10:26:44;;;;;;;4.95;2.15;;;;;;;9.31;34.01;101023.66;5094087;28;20075;-73
2022/03/01 10:29:33;;;;;;;5.30;2.58;;;;;;;8.92;32.61;101009.88;5094417;28;20059;-73
2022/03/01 10:32:12;;;;;;;7.97;2.45;;;;;;;8.92;32.38;101017.50;5105191;28;20048;-74
2022/03/01 10:34:58;;;;;;;5.60;2.50;;;;;;;9.42;33.41;101001.88;5093878;28;20074;-73
2022/03/01 10:37:29;;;;;;;6.20;2.88;;;;;;;9.83;32.88;101004.56;5102656;28;20046;-73
2022/03/01 10:40:16;;;;;;;6.47;3.08;;;;;;;9.31;32.36;101000.72;5114644;28;20043;-73
2022/03/01 10:43:00;;;;;;;3.83;2.30;;;;;;;9.41;33.13;100999.25;5114274;28;20075;-73
2022/03/01 10:45:38;;;;;;;4.63;1.85;;;;;;;9.76;33.28;100997.59;5099474;28;20136;-73
2022/03/01 10:48:09;;;;;;;4.10;2.40;;;;;;;9.47;31.94;100999.44;5100405;28;20117;-74
2022/03/01 10:50:41;;;;;;;3.40;1.77;;;;;;;9.12;31.88;100985.78;5094417;28;20047;-75
2022/03/01 10:53:11;;;;;;;4.97;2.45;;;;;;;9.64;32.44;100982.00;5106425;28;20453;-73
2022/03/01 10:55:42;;;;;;;4.97;2.55;;;;;;;9.98;32.47;100987.06;5106991;28;20044;-73
2022/03/01 10:58:14;;;;;;;5.32;2.78;;;;;;;9.98;32.07;100975.16;5114036;28;20051;-73
2022/03/01 11:00:43;;;;;;;5.18;2.47;;;;;;;9.93;32.82;100981.00;5103341;28;20102;-74
2022/03/01 11:03:12;;;;;;;4.05;1.50;;;;;;;9.83;31.56;100973.94;5102270;28;20554;-74
2022/03/01 11:05:42;;;;;;;5.55;2.72;;;;;;;10.14;31.55;100966.19;5101281;28;20088;-74
2022/03/01 11:08:33;;;;;;;5.00;2.33;;;;;;;10.70;31.79;100960.53;5093528;28;20426;-73
2022/03/01 11:11:05;;;;;;;4.50;2.55;;;;;;;10.54;31.40;100963.63;5093917;28;20067;-73
2022/03/01 11:13:39;;;;;;;5.97;2.30;;;;;;;11.25;31.55;100946.22;5093872;28;20047;-72
2022/03/01 11:16:26;;;;;;;10.45;3.15;;;;;;;10.64;30.52;100950.22;5093507;28;20074;-73
2022/03/01 11:19:03;;;;;;;4.18;1.92;;;;;;;10.48;30.01;100927.78;5097601;28;20036;-73
2022/03/01 11:21:34;;;;;;;4.45;2.35;;;;;;;10.63;30.60;100928.06;5101923;28;20063;-73
2022/03/01 11:24:04;;;;;;;4.00;2.30;;;;;;;10.67;30.30;100922.19;5118047;28;20397;-73
2022/03/01 11:26:38;;;;;;;3.85;1.85;;;;;;;11.01;30.71;100915.13;5098066;28;20040;-73
2022/03/01 11:29:12;;;;;;;4.07;2.25;;;;;;;11.14;29.92;100914.50;5097576;28;20058;-73
2022/03/01 11:31:44;;;;;;;3.80;2.08;;;;;;;10.82;29.91;100902.88;5097471;28;20044;-73
2022/03/01 11:34:15;;;;;;;5.10;2.42;;;;;;;10.56;29.82;100899.81;5097802;28;20559;-74
2022/03/01 11:36:49;;;;;;;4.75;2.22;;;;;;;10.36;29.35;100896.91;5097279;28;20050;-73
2022/03/01 11:39:27;;;;;;;5.28;1.98;;;;;;;10.99;29.72;100891.25;5097675;28;20048;-73